createdAt,value
2023-05-06T00:01:25.348Z,3.17
2023-05-06T00:03:52.363Z,3.00
2023-05-06T00:06:19.207Z,3.47
2023-05-06T00:08:46.661Z,3.90
2023-05-06T00:11:13.935Z,3.67
2023-05-06T00:13:41.629Z,4.20
2023-05-06T00:16:08.437Z,4.07
2023-05-06T00:18:35.241Z,4.50
2023-05-06T00:21:01.641Z,4.10
2023-05-06T00:23:28.225Z,4.68
2023-05-06T00:25:54.908Z,4.53
2023-05-06T00:28:22.022Z,3.70
2023-05-06T00:30:48.465Z,4.35
2023-05-06T00:33:14.982Z,3.55
2023-05-06T00:35:41.383Z,3.85
2023-05-06T00:38:14.299Z,3.30
2023-05-06T00:40:41.026Z,3.55
2023-05-06T00:43:07.535Z,3.40
2023-05-06T00:45:34.103Z,3.25
2023-05-06T00:48:01.167Z,3.25
2023-05-06T00:50:29.625Z,3.17
2023-05-06T00:52:58.992Z,3.10
2023-05-06T00:55:26.435Z,3.78
2023-05-06T00:57:53.107Z,3.83
2023-05-06T01:00:20.484Z,3.65
2023-05-06T01:02:48.228Z,3.90
2023-05-06T01:05:22.242Z,4.03
2023-05-06T01:08:12.925Z,3.83
2023-05-06T01:10:51.687Z,4.10
2023-05-06T01:13:47.092Z,4.70
2023-05-06T01:16:15.818Z,4.43
2023-05-06T01:18:44.546Z,4.63
2023-05-06T01:21:12.632Z,4.15
2023-05-06T01:23:57.645Z,3.70
2023-05-06T01:26:24.898Z,3.92
2023-05-06T01:28:51.498Z,4.47
2023-05-06T01:31:30.065Z,4.60
2023-05-06T01:34:14.130Z,4.45
2023-05-06T01:36:58.484Z,4.20
2023-05-06T01:39:26.336Z,4.70
2023-05-06T01:41:57.315Z,4.93
2023-05-06T01:44:24.870Z,4.85
2023-05-06T01:46:51.793Z,4.88
2023-05-06T01:49:19.893Z,5.20
2023-05-06T01:51:50.846Z,5.13
2023-05-06T01:54:17.730Z,5.67
2023-05-06T01:56:44.195Z,5.45
2023-05-06T01:59:10.832Z,6.35
2023-05-06T02:01:37.297Z,5.72
2023-05-06T02:04:04.181Z,4.85
2023-05-06T02:06:30.777Z,4.73
2023-05-06T02:08:57.182Z,5.30
2023-05-06T02:11:23.621Z,6.22
2023-05-06T02:13:50.356Z,5.13
2023-05-06T02:16:16.969Z,4.82
2023-05-06T02:18:43.606Z,5.07
2023-05-06T02:21:10.435Z,5.05
2023-05-06T02:23:36.820Z,5.80
2023-05-06T02:26:04.331Z,6.22
2023-05-06T02:28:30.827Z,4.80
2023-05-06T02:30:57.717Z,5.30
2023-05-06T02:33:24.499Z,6.20
2023-05-06T02:35:51.329Z,5.47
2023-05-06T02:38:19.129Z,4.85
2023-05-06T02:40:45.701Z,4.82
2023-05-06T02:43:12.200Z,4.63
2023-05-06T02:45:39.288Z,3.60
2023-05-06T02:48:06.321Z,4.65
2023-05-06T02:50:34.017Z,4.50
2023-05-06T02:53:00.553Z,6.03
2023-05-06T02:55:27.183Z,5.20
2023-05-06T02:57:53.669Z,6.15
2023-05-06T03:00:20.335Z,6.43
2023-05-06T03:02:47.182Z,5.00
2023-05-06T03:05:13.746Z,6.07
2023-05-06T03:07:40.170Z,4.87
2023-05-06T03:10:07.593Z,4.68
2023-05-06T03:12:34.207Z,5.00
2023-05-06T03:15:00.710Z,4.40
2023-05-06T03:17:27.200Z,5.10
2023-05-06T03:19:53.668Z,4.90
2023-05-06T03:22:20.482Z,5.13
2023-05-06T03:24:46.859Z,4.90
2023-05-06T03:27:13.312Z,4.95
2023-05-06T03:29:39.742Z,5.30
2023-05-06T03:32:06.631Z,5.10
2023-05-06T03:34:33.080Z,4.50
2023-05-06T03:37:00.449Z,4.93
2023-05-06T03:39:26.861Z,4.68
2023-05-06T03:41:53.394Z,5.55
2023-05-06T03:44:19.820Z,5.80
2023-05-06T03:46:46.242Z,4.93
2023-05-06T03:49:12.944Z,5.93
2023-05-06T03:51:39.534Z,5.50
2023-05-06T03:54:06.174Z,5.00
2023-05-06T03:56:32.677Z,3.97
2023-05-06T03:58:59.122Z,3.90
2023-05-06T04:01:25.646Z,3.63
2023-05-06T04:03:53.657Z,3.80
2023-05-06T04:06:20.104Z,3.47
2023-05-06T04:08:46.548Z,4.57
2023-05-06T04:11:13.054Z,5.00
2023-05-06T04:13:39.554Z,4.55
2023-05-06T04:16:06.367Z,5.18
2023-05-06T04:18:34.315Z,5.20
2023-05-06T04:21:00.899Z,5.80
2023-05-06T04:23:27.408Z,5.18
2023-05-06T04:25:53.995Z,7.90
2023-05-06T04:28:20.702Z,5.43
2023-05-06T04:30:47.194Z,5.18
2023-05-06T04:33:13.956Z,6.33
2023-05-06T04:35:41.012Z,6.07
2023-05-06T04:38:07.586Z,5.07
2023-05-06T04:40:36.577Z,5.90
2023-05-06T04:43:03.194Z,4.50
2023-05-06T04:45:29.946Z,7.03
2023-05-06T04:47:56.620Z,4.50
2023-05-06T04:50:23.129Z,3.70
2023-05-06T04:52:49.707Z,4.65
2023-05-06T04:55:16.284Z,4.25
2023-05-06T04:57:42.831Z,4.03
2023-05-06T05:00:10.671Z,3.88
2023-05-06T05:02:37.607Z,4.47
2023-05-06T05:05:04.441Z,4.43
2023-05-06T05:07:30.950Z,3.75
2023-05-06T05:09:57.579Z,3.77
2023-05-06T05:12:24.015Z,3.35
2023-05-06T05:14:50.450Z,3.13
2023-05-06T05:17:17.038Z,3.53
2023-05-06T05:19:43.549Z,3.55
2023-05-06T05:22:10.040Z,3.20
2023-05-06T05:24:36.469Z,4.32
2023-05-06T05:27:03.444Z,3.95
2023-05-06T05:29:29.936Z,5.13
2023-05-06T05:31:56.628Z,5.45
2023-05-06T05:34:23.022Z,5.80
2023-05-06T05:36:49.561Z,6.78
2023-05-06T05:39:16.078Z,6.20
2023-05-06T05:41:42.610Z,6.47
2023-05-06T05:44:09.095Z,7.20
2023-05-06T05:46:35.581Z,7.17
2023-05-06T05:49:02.087Z,7.10
2023-05-06T05:51:28.566Z,8.23
2023-05-06T05:53:54.984Z,8.27
2023-05-06T05:56:21.503Z,8.43
2023-05-06T05:58:48.073Z,8.13
2023-05-06T06:01:14.643Z,9.10
2023-05-06T06:03:41.895Z,8.85
2023-05-06T06:06:09.217Z,9.55
2023-05-06T06:08:36.048Z,9.95
2023-05-06T06:11:04.480Z,9.33
2023-05-06T06:13:31.579Z,10.13
2023-05-06T06:15:58.477Z,10.18
2023-05-06T06:18:24.968Z,9.38
2023-05-06T06:20:53.286Z,9.48
2023-05-06T06:23:20.946Z,10.10
2023-05-06T06:25:47.431Z,9.52
2023-05-06T06:28:13.950Z,10.13
2023-05-06T06:30:41.215Z,10.60
2023-05-06T06:33:07.765Z,9.90
2023-05-06T06:35:35.643Z,9.57
2023-05-06T06:38:02.849Z,10.10
2023-05-06T06:40:29.310Z,9.57
2023-05-06T06:42:55.814Z,10.30
2023-05-06T06:45:23.438Z,9.90
2023-05-06T06:47:50.055Z,10.20
2023-05-06T06:50:16.723Z,10.60
2023-05-06T06:52:43.126Z,9.88
2023-05-06T06:55:10.210Z,10.27
2023-05-06T06:57:37.911Z,9.57
2023-05-06T07:00:05.129Z,9.57
2023-05-06T07:02:31.647Z,9.60
2023-05-06T07:04:58.091Z,9.00
2023-05-06T07:07:24.505Z,9.60
2023-05-06T07:09:50.939Z,10.05
2023-05-06T07:12:17.400Z,9.07
2023-05-06T07:14:43.783Z,10.07
2023-05-06T07:17:10.264Z,10.38
2023-05-06T07:19:36.894Z,9.50
2023-05-06T07:22:03.432Z,10.70
2023-05-06T07:24:29.905Z,9.10
2023-05-06T07:26:56.639Z,9.68
2023-05-06T07:29:23.708Z,9.65
2023-05-06T07:31:50.080Z,9.30
2023-05-06T07:34:16.530Z,9.75
2023-05-06T07:36:54.821Z,9.10
2023-05-06T07:39:21.290Z,8.60
2023-05-06T07:41:48.025Z,10.38
2023-05-06T07:44:14.418Z,9.57
2023-05-06T07:46:41.790Z,10.20
2023-05-06T07:49:08.323Z,9.53
2023-05-06T07:51:34.842Z,10.40
2023-05-06T07:54:01.310Z,10.27
2023-05-06T07:56:28.001Z,9.43
2023-05-06T07:58:54.590Z,10.55
2023-05-06T08:01:21.154Z,10.83
2023-05-06T08:03:47.670Z,10.50
2023-05-06T08:06:14.464Z,10.05
2023-05-06T08:08:40.894Z,11.23
2023-05-06T08:11:07.369Z,10.07
2023-05-06T08:13:33.890Z,11.93
2023-05-06T08:16:02.318Z,10.80
2023-05-06T08:18:29.362Z,10.88
2023-05-06T08:20:55.909Z,11.43
2023-05-06T08:23:22.470Z,11.57
2023-05-06T08:25:48.862Z,11.27
2023-05-06T08:28:15.271Z,11.38
2023-05-06T08:30:41.919Z,10.90
2023-05-06T08:33:08.410Z,11.13
2023-05-06T08:35:34.836Z,11.65
2023-05-06T08:38:01.854Z,12.77
2023-05-06T08:40:32.538Z,13.27
2023-05-06T08:42:59.732Z,11.60
2023-05-06T08:45:29.269Z,12.15
2023-05-06T08:47:56.180Z,12.85
2023-05-06T08:50:23.396Z,11.67
2023-05-06T08:52:50.858Z,11.77
2023-05-06T08:55:19.327Z,11.77
2023-05-06T08:57:46.311Z,11.43
2023-05-06T09:00:13.459Z,12.45
2023-05-06T09:02:42.693Z,12.17
2023-05-06T09:05:10.216Z,11.77
2023-05-06T09:07:37.026Z,11.00
2023-05-06T09:10:21.874Z,10.35
2023-05-06T09:12:48.435Z,11.05
2023-05-06T09:15:15.163Z,11.17
2023-05-06T09:17:41.955Z,11.32
2023-05-06T09:20:11.948Z,11.35
2023-05-06T09:22:40.510Z,10.00
2023-05-06T09:25:07.848Z,10.35
2023-05-06T09:27:36.586Z,10.43
2023-05-06T09:30:14.886Z,9.63
2023-05-06T09:32:41.916Z,10.95
2023-05-06T09:35:10.638Z,10.15
2023-05-06T09:37:37.320Z,11.23
2023-05-06T09:40:04.097Z,10.50
2023-05-06T09:42:30.880Z,10.00
2023-05-06T09:45:07.575Z,9.35
2023-05-06T09:47:35.644Z,10.60
2023-05-06T09:50:03.354Z,10.10
2023-05-06T09:52:31.150Z,10.67
2023-05-06T09:54:58.147Z,11.00
2023-05-06T09:57:25.719Z,10.80
2023-05-06T09:59:53.964Z,11.15
2023-05-06T10:02:23.426Z,11.35
2023-05-06T10:04:51.199Z,10.93
2023-05-06T10:07:22.754Z,10.73
2023-05-06T10:09:51.085Z,9.45
2023-05-06T10:12:19.012Z,10.10
2023-05-06T10:14:45.627Z,10.27
2023-05-06T10:17:13.329Z,11.20
2023-05-06T10:19:43.773Z,9.45
2023-05-06T10:22:30.941Z,10.05
2023-05-06T10:25:33.879Z,9.80
2023-05-06T10:28:01.422Z,8.77
2023-05-06T10:30:30.148Z,9.70
2023-05-06T10:32:59.549Z,9.20
2023-05-06T10:35:41.425Z,8.38
2023-05-06T10:38:29.632Z,9.27
2023-05-06T10:40:57.302Z,8.45
2023-05-06T10:43:32.001Z,7.80
2023-05-06T10:46:02.921Z,9.70
2023-05-06T10:48:30.866Z,8.40
2023-05-06T10:51:15.935Z,8.68
2023-05-06T10:54:08.514Z,7.97
2023-05-06T10:56:50.217Z,8.33
2023-05-06T10:59:24.954Z,8.50
2023-05-06T11:01:57.390Z,7.88
2023-05-06T11:04:24.015Z,7.82
2023-05-06T11:06:52.961Z,7.93
2023-05-06T11:09:24.610Z,8.07
2023-05-06T11:12:05.914Z,7.03
2023-05-06T11:14:35.349Z,7.10
2023-05-06T11:17:04.935Z,6.70
2023-05-06T11:19:33.102Z,6.07
2023-05-06T11:22:01.766Z,5.00
2023-05-06T11:24:30.193Z,5.40
2023-05-06T11:26:58.830Z,5.75
2023-05-06T11:29:25.937Z,6.03
2023-05-06T11:31:55.856Z,5.60
2023-05-06T11:34:30.489Z,6.00
2023-05-06T11:37:02.487Z,6.28
2023-05-06T11:39:32.327Z,6.00
2023-05-06T11:42:06.974Z,5.13
2023-05-06T11:44:35.115Z,6.07
2023-05-06T11:47:05.594Z,6.00
2023-05-06T11:49:40.759Z,6.90
2023-05-06T11:52:12.003Z,6.13
2023-05-06T11:54:40.603Z,6.65
2023-05-06T11:57:07.436Z,6.45
2023-05-06T11:59:37.489Z,6.27
2023-05-06T12:02:06.145Z,6.68
2023-05-06T12:04:44.200Z,6.88
2023-05-06T12:07:13.158Z,8.00
2023-05-06T12:09:43.572Z,6.50
2023-05-06T12:12:11.236Z,6.10
2023-05-06T12:14:38.399Z,6.75
2023-05-06T12:17:05.413Z,7.13
2023-05-06T12:19:32.707Z,6.97
2023-05-06T12:22:19.479Z,6.25
2023-05-06T12:24:47.561Z,5.90
2023-05-06T12:27:14.287Z,6.63
2023-05-06T12:29:40.774Z,6.35
2023-05-06T12:32:11.676Z,6.47
2023-05-06T12:34:40.013Z,6.30
2023-05-06T12:37:09.858Z,6.10
2023-05-06T12:39:40.409Z,6.97
2023-05-06T12:42:06.980Z,6.30
2023-05-06T12:44:40.031Z,5.90
2023-05-06T12:47:08.936Z,5.22
2023-05-06T12:49:53.679Z,5.73
2023-05-06T12:52:25.181Z,6.53
2023-05-06T12:54:55.032Z,5.90
2023-05-06T12:57:22.161Z,4.82
2023-05-06T12:59:49.160Z,5.38
2023-05-06T13:02:16.115Z,6.77
2023-05-06T13:04:42.807Z,6.07
2023-05-06T13:07:09.259Z,5.90
2023-05-06T13:09:35.769Z,6.25
2023-05-06T13:12:04.449Z,7.20
2023-05-06T13:14:30.929Z,6.73
2023-05-06T13:17:00.788Z,6.93
2023-05-06T13:19:33.055Z,6.80
2023-05-06T13:22:00.621Z,6.57
2023-05-06T13:24:27.383Z,5.97
2023-05-06T13:26:53.860Z,7.07
2023-05-06T13:29:20.438Z,7.57
2023-05-06T13:31:46.938Z,7.90
2023-05-06T13:34:13.885Z,7.30
2023-05-06T13:36:40.338Z,6.85
2023-05-06T13:39:06.865Z,5.80
2023-05-06T13:41:33.238Z,6.78
2023-05-06T13:43:59.847Z,7.13
2023-05-06T13:46:29.245Z,7.05
2023-05-06T13:48:55.706Z,7.00
2023-05-06T13:51:22.160Z,7.90
2023-05-06T13:53:48.540Z,7.85
2023-05-06T13:56:14.955Z,8.20
2023-05-06T13:58:43.683Z,7.05
2023-05-06T14:01:10.279Z,6.55
2023-05-06T14:03:37.062Z,5.17
2023-05-06T14:06:03.735Z,5.95
2023-05-06T14:08:30.244Z,5.45
2023-05-06T14:10:56.599Z,5.32
2023-05-06T14:13:23.319Z,5.15
2023-05-06T14:15:49.851Z,3.17
2023-05-06T14:18:16.358Z,2.53
2023-05-06T14:20:44.116Z,2.60
2023-05-06T14:23:10.580Z,2.20
2023-05-06T14:25:37.096Z,2.60
2023-05-06T14:28:03.575Z,3.27
2023-05-06T14:30:31.251Z,2.38
2023-05-06T14:32:58.686Z,2.20
2023-05-06T14:35:25.337Z,2.13
2023-05-06T14:37:51.985Z,1.60
2023-05-06T14:40:18.418Z,2.17
2023-05-06T14:42:45.831Z,2.05
2023-05-06T14:45:13.454Z,1.67
2023-05-06T14:47:40.717Z,2.35
2023-05-06T14:50:11.944Z,1.75
2023-05-06T14:52:40.025Z,1.77
2023-05-06T14:55:08.817Z,2.00
2023-05-06T14:57:35.746Z,1.42
2023-05-06T15:00:04.909Z,1.80
2023-05-06T15:02:31.377Z,1.63
2023-05-06T15:04:58.185Z,1.70
2023-05-06T15:07:24.562Z,1.73
2023-05-06T15:09:53.369Z,2.00
2023-05-06T15:12:21.153Z,1.33
2023-05-06T15:14:47.680Z,1.73
2023-05-06T15:17:14.074Z,1.43
2023-05-06T15:19:40.714Z,1.10
2023-05-06T15:22:07.339Z,1.30
2023-05-06T15:24:33.757Z,1.23
2023-05-06T15:27:00.672Z,1.40
2023-05-06T15:29:27.324Z,1.47
2023-05-06T15:31:54.256Z,1.20
2023-05-06T15:34:21.169Z,1.73
2023-05-06T15:36:53.539Z,1.70
2023-05-06T15:39:20.044Z,1.67
2023-05-06T15:41:47.577Z,1.60
2023-05-06T15:44:16.388Z,1.75
2023-05-06T15:46:43.014Z,1.48
2023-05-06T15:49:39.634Z,2.20
2023-05-06T15:51:59.123Z,1.95
2023-05-06T15:54:27.261Z,1.70
2023-05-06T15:56:53.708Z,1.58
2023-05-06T15:59:20.152Z,1.67
2023-05-06T16:04:16.380Z,1.40
2023-05-06T16:06:42.982Z,1.00
2023-05-06T16:09:10.334Z,1.00
2023-05-06T16:11:36.884Z,1.10
2023-05-06T16:14:03.805Z,1.50
2023-05-06T16:16:30.513Z,1.50
2023-05-06T16:18:57.031Z,1.10
2023-05-06T16:21:23.493Z,1.33
2023-05-06T16:23:49.855Z,1.38
2023-05-06T16:26:16.854Z,1.25
2023-05-06T16:28:43.305Z,1.63
2023-05-06T16:31:09.793Z,1.57
2023-05-06T16:33:36.677Z,0.90
2023-05-06T16:36:03.974Z,1.35
2023-05-06T16:38:30.648Z,1.27
2023-05-06T16:40:57.037Z,1.63
2023-05-06T16:43:23.757Z,1.50
2023-05-06T16:45:50.352Z,1.38
2023-05-06T16:48:17.240Z,1.35
2023-05-06T16:50:43.766Z,1.20
2023-05-06T16:53:10.627Z,1.30
2023-05-06T16:55:37.142Z,1.80
2023-05-06T16:58:04.088Z,1.30
2023-05-06T17:00:31.747Z,1.58
2023-05-06T17:02:58.504Z,1.23
2023-05-06T17:05:25.155Z,1.38
2023-05-06T17:07:51.880Z,0.90
2023-05-06T17:10:19.019Z,1.00
2023-05-06T17:12:47.014Z,1.25
2023-05-06T17:15:13.459Z,0.90
2023-05-06T17:17:40.030Z,1.42
2023-05-06T17:20:07.376Z,1.20
2023-05-06T17:22:33.881Z,0.90
2023-05-06T17:25:00.444Z,1.45
2023-05-06T17:27:27.115Z,0.90
2023-05-06T17:29:53.533Z,1.08
2023-05-06T17:32:20.012Z,0.80
2023-05-06T17:34:46.573Z,1.00
2023-05-06T17:37:12.975Z,0.82
2023-05-06T17:39:39.811Z,0.80
2023-05-06T17:42:06.361Z,1.23
2023-05-06T17:44:35.169Z,0.80
2023-05-06T17:47:01.583Z,1.10
2023-05-06T17:49:28.047Z,1.25
2023-05-06T17:51:56.101Z,0.80
2023-05-06T17:54:23.002Z,1.10
2023-05-06T17:56:52.679Z,1.00
2023-05-06T17:59:19.843Z,1.02
2023-05-06T18:01:46.547Z,1.00
2023-05-06T18:04:13.592Z,1.35
2023-05-06T18:06:41.664Z,1.75
2023-05-06T18:09:08.520Z,1.47
2023-05-06T18:11:35.181Z,1.55
2023-05-06T18:14:01.634Z,1.55
2023-05-06T18:16:28.175Z,1.80
2023-05-06T18:18:54.630Z,2.40
2023-05-06T18:21:21.187Z,1.80
2023-05-06T18:23:48.520Z,2.45
2023-05-06T18:26:27.999Z,2.60
2023-05-06T18:29:06.771Z,2.88
2023-05-06T18:31:33.516Z,4.55
2023-05-06T18:33:59.936Z,3.60
2023-05-06T18:36:26.921Z,3.60
2023-05-06T18:38:53.443Z,3.50
2023-05-06T18:41:19.841Z,3.80
2023-05-06T18:43:46.253Z,4.15
2023-05-06T18:46:12.678Z,3.97
2023-05-06T18:48:39.146Z,4.50
2023-05-06T18:51:23.960Z,4.32
2023-05-06T18:53:50.428Z,4.13
2023-05-06T18:56:16.936Z,4.70
2023-05-06T18:58:43.582Z,4.57
2023-05-06T19:01:10.829Z,5.22
2023-05-06T19:03:37.989Z,4.72
2023-05-06T19:06:07.575Z,4.97
2023-05-06T19:08:34.003Z,4.70
2023-05-06T19:11:01.204Z,4.80
2023-05-06T19:13:28.201Z,4.82
2023-05-06T19:15:55.030Z,5.03
2023-05-06T19:18:21.524Z,4.80
2023-05-06T19:20:47.965Z,5.18
2023-05-06T19:23:14.384Z,4.83
2023-05-06T19:25:40.794Z,4.70
2023-05-06T19:28:07.630Z,4.60
2023-05-06T19:30:35.351Z,4.50
2023-05-06T19:33:02.515Z,4.38
2023-05-06T19:35:29.101Z,4.93
2023-05-06T19:37:56.123Z,5.70
2023-05-06T19:40:22.695Z,5.35
2023-05-06T19:42:49.114Z,5.22
2023-05-06T19:45:16.709Z,5.22
2023-05-06T19:47:45.314Z,5.70
2023-05-06T19:50:12.046Z,5.78
2023-05-06T19:52:38.666Z,5.43
2023-05-06T19:55:05.570Z,5.38
2023-05-06T19:57:33.627Z,5.45
2023-05-06T20:00:00.290Z,5.53
2023-05-06T20:02:26.861Z,4.65
2023-05-06T20:04:53.314Z,5.28
2023-05-06T20:07:21.102Z,5.90
2023-05-06T20:09:55.009Z,4.80
2023-05-06T20:12:26.396Z,5.20
2023-05-06T20:14:53.684Z,5.43
2023-05-06T20:17:20.617Z,5.05
2023-05-06T20:19:47.909Z,5.55
2023-05-06T20:22:14.821Z,5.35
2023-05-06T20:24:42.476Z,5.67
2023-05-06T20:27:09.505Z,5.28
2023-05-06T20:29:36.235Z,5.68
2023-05-06T20:32:02.925Z,4.93
2023-05-06T20:34:29.708Z,5.85
2023-05-06T20:36:56.773Z,5.73
2023-05-06T20:39:23.896Z,5.85
2023-05-06T20:41:50.501Z,5.65
2023-05-06T20:44:17.167Z,6.03
2023-05-06T20:46:44.141Z,5.88
2023-05-06T20:49:10.760Z,6.30
2023-05-06T20:51:37.227Z,5.43
2023-05-06T20:54:03.960Z,5.20
2023-05-06T20:56:30.550Z,5.13
2023-05-06T20:58:56.996Z,6.20
2023-05-06T21:01:24.142Z,5.77
2023-05-06T21:03:50.945Z,6.20
2023-05-06T21:06:18.581Z,6.38
2023-05-06T21:08:46.375Z,6.63
2023-05-06T21:11:13.255Z,6.15
2023-05-06T21:13:40.276Z,6.17
2023-05-06T21:16:06.644Z,6.53
2023-05-06T21:18:33.155Z,6.13
2023-05-06T21:20:59.775Z,5.88
2023-05-06T21:23:26.609Z,5.68
2023-05-06T21:25:53.034Z,5.90
2023-05-06T21:28:19.461Z,6.25
2023-05-06T21:30:46.050Z,7.03
2023-05-06T21:33:12.608Z,6.70
2023-05-06T21:35:39.108Z,6.18
2023-05-06T21:38:05.518Z,6.23
2023-05-06T21:40:32.230Z,6.05
2023-05-06T21:42:58.712Z,6.05
2023-05-06T21:45:25.359Z,5.90
2023-05-06T21:47:51.838Z,6.28
2023-05-06T21:50:18.255Z,6.90
2023-05-06T21:52:44.672Z,6.85
2023-05-06T21:55:11.515Z,7.43
2023-05-06T21:57:38.750Z,8.00
2023-05-06T22:00:11.974Z,7.10
2023-05-06T22:02:41.834Z,6.50
2023-05-06T22:05:09.031Z,6.90
2023-05-06T22:07:35.969Z,6.05
2023-05-06T22:10:03.096Z,6.00
2023-05-06T22:12:30.087Z,6.20
2023-05-06T22:14:56.552Z,5.93
2023-05-06T22:17:23.202Z,6.20
2023-05-06T22:19:50.480Z,6.05
2023-05-06T22:22:17.199Z,6.35
2023-05-06T22:24:43.884Z,6.32
2023-05-06T22:27:10.687Z,6.67
2023-05-06T22:29:37.130Z,6.07
2023-05-06T22:32:03.929Z,5.85
2023-05-06T22:34:30.420Z,6.43
2023-05-06T22:36:59.167Z,6.30
2023-05-06T22:39:27.186Z,6.10
2023-05-06T22:41:53.717Z,6.55
2023-05-06T22:44:21.004Z,6.38
2023-05-06T22:46:47.425Z,7.15
2023-05-06T22:49:14.444Z,7.05
2023-05-06T22:51:41.238Z,7.53
2023-05-06T22:54:07.620Z,6.82
2023-05-06T22:56:34.037Z,6.57
2023-05-06T22:59:00.481Z,7.68
2023-05-06T23:01:32.267Z,7.18
2023-05-06T23:03:59.629Z,6.60
2023-05-06T23:06:27.680Z,6.47
2023-05-06T23:08:54.199Z,6.35
2023-05-06T23:11:20.779Z,5.55
2023-05-06T23:13:47.325Z,6.03
2023-05-06T23:16:14.617Z,5.70
2023-05-06T23:18:41.374Z,5.50
2023-05-06T23:21:08.011Z,5.03
2023-05-06T23:23:34.629Z,5.38
2023-05-06T23:26:01.026Z,5.25
2023-05-06T23:28:27.842Z,5.40
2023-05-06T23:30:54.320Z,4.22
2023-05-06T23:33:21.182Z,4.28
2023-05-06T23:35:47.610Z,4.20
2023-05-06T23:38:15.768Z,4.20
2023-05-06T23:40:42.388Z,4.47
2023-05-06T23:43:11.220Z,4.32
2023-05-06T23:45:37.974Z,4.40
2023-05-06T23:48:04.988Z,4.78
2023-05-06T23:50:32.826Z,4.10
2023-05-06T23:52:59.356Z,4.67
2023-05-06T23:55:26.401Z,4.00
2023-05-06T23:57:53.040Z,4.00
